Time;durP1;ratioP1;P1;durP2;ratioP2;P2;SDS_P1;SDS_P2;PMS_P1;PMS_P2;Temp;Humidity;BMP_temperature;BMP_pressure;BME280_temperature;BME280_humidity;BME280_pressure;Samples;Min_cycle;Max_cycle;Signal;HPM_P1;HPM_P2
2024/01/17 00:02:12;;;;;;;10.70;6.07;;;;;;;;;;5019145;28;20363;-91
2024/01/17 00:07:56;;;;;;;11.70;6.13;;;;;;;;;;5033426;28;20331;-93
2024/01/17 00:10:43;;;;;;;17.70;7.90;;;;;;;;;;5028075;28;20252;-89
2024/01/17 00:13:18;;;;;;;18.00;7.43;;;;;;;;;;4937419;29;20690;-90
2024/01/17 00:15:56;;;;;;;16.33;7.27;;;;;;;;;;5032228;28;20434;-91
2024/01/17 00:18:46;;;;;;;19.70;8.30;;;;;;;;;;5018818;28;20287;-91
2024/01/17 00:21:12;;;;;;;16.57;8.23;;;;;;;;;;5033585;28;21269;-90
2024/01/17 00:23:38;;;;;;;17.83;7.43;;;;;;;;;;5012979;28;20915;-90
2024/01/17 00:26:04;;;;;;;19.40;8.30;;;;;;;;;;5015326;28;20276;-90
2024/01/17 00:28:30;;;;;;;13.93;7.30;;;;;;;;;;5014511;28;20306;-91
2024/01/17 00:30:57;;;;;;;13.77;7.37;;;;;;;;;;5015660;28;20113;-90
2024/01/17 00:33:23;;;;;;;17.30;8.13;;;;;;;;;;5015503;28;20480;-87
2024/01/17 00:35:49;;;;;;;16.70;7.83;;;;;;;;;;5012432;28;20768;-85
2024/01/17 00:38:15;;;;;;;16.40;7.63;;;;;;;;;;5012890;28;20272;-90
2024/01/17 00:40:41;;;;;;;22.07;8.70;;;;;;;;;;5015125;28;20277;-86
2024/01/17 00:43:07;;;;;;;15.60;6.97;;;;;;;;;;5013395;28;20359;-89
2024/01/17 00:45:33;;;;;;;16.87;6.33;;;;;;;;;;5030036;28;20029;-91
2024/01/17 00:47:59;;;;;;;18.03;7.70;;;;;;;;;;5013865;28;20293;-89
2024/01/17 00:50:25;;;;;;;18.03;7.53;;;;;;;;;;5012807;28;20287;-87
2024/01/17 00:52:51;;;;;;;17.50;7.23;;;;;;;;;;5015005;28;20056;-91
2024/01/17 00:55:17;;;;;;;20.17;8.93;;;;;;;;;;5010891;28;20117;-90
2024/01/17 00:57:45;;;;;;;17.20;7.03;;;;;;;;;;5013122;28;20033;-91
2024/01/17 01:00:14;;;;;;;16.90;6.83;;;;;;;;;;5028488;28;20271;-89
2024/01/17 01:02:40;;;;;;;21.40;8.47;;;;;;;;;;5012198;28;20276;-92
2024/01/17 01:05:06;;;;;;;13.77;6.63;;;;;;;;;;5010809;28;20272;-89
2024/01/17 01:07:32;;;;;;;22.57;8.40;;;;;;;;;;5010730;28;20383;-92
2024/01/17 01:09:58;;;;;;;17.33;8.07;;;;;;;;;;5010156;28;20373;-91
2024/01/17 01:12:24;;;;;;;14.80;6.90;;;;;;;;;;5009839;28;20437;-86
2024/01/17 01:14:50;;;;;;;13.87;7.00;;;;;;;;;;5009768;28;20088;-88
2024/01/17 01:17:16;;;;;;;16.03;7.60;;;;;;;;;;5010775;28;20272;-91
2024/01/17 01:19:42;;;;;;;11.60;7.07;;;;;;;;;;5011854;28;20767;-89
2024/01/17 01:22:08;;;;;;;15.60;7.57;;;;;;;;;;5014813;28;20136;-89
2024/01/17 01:24:34;;;;;;;12.63;7.00;;;;;;;;;;5029379;28;20038;-88
2024/01/17 01:27:00;;;;;;;14.60;7.57;;;;;;;;;;5012921;28;20072;-89
2024/01/17 01:29:28;;;;;;;12.07;6.77;;;;;;;;;;5010269;28;20068;-87
2024/01/17 01:31:58;;;;;;;16.93;7.80;;;;;;;;;;5010383;28;20045;-90
2024/01/17 01:34:24;;;;;;;25.13;8.63;;;;;;;;;;5014681;28;20276;-89
2024/01/17 01:36:50;;;;;;;13.83;7.77;;;;;;;;;;5013270;28;20390;-91
2024/01/17 01:39:16;;;;;;;18.27;7.47;;;;;;;;;;5011035;28;20300;-90
2024/01/17 01:41:42;;;;;;;15.47;7.67;;;;;;;;;;5014534;28;20033;-90
2024/01/17 01:44:08;;;;;;;14.30;6.53;;;;;;;;;;5029034;28;20030;-91
2024/01/17 01:46:35;;;;;;;19.40;8.70;;;;;;;;;;5023755;28;20311;-88
2024/01/17 01:49:03;;;;;;;27.13;8.13;;;;;;;;;;5026850;28;20032;-88
2024/01/17 01:51:29;;;;;;;16.13;7.23;;;;;;;;;;5011959;28;20932;-92
2024/01/17 01:54:00;;;;;;;18.73;7.43;;;;;;;;;;5009411;28;20280;-83
2024/01/17 01:56:28;;;;;;;17.10;8.03;;;;;;;;;;5014413;28;20265;-90
2024/01/17 01:58:55;;;;;;;15.73;7.40;;;;;;;;;;5025806;28;20296;-90
2024/01/17 02:01:22;;;;;;;13.73;7.47;;;;;;;;;;5012297;28;20283;-90
2024/01/17 02:03:48;;;;;;;21.10;7.87;;;;;;;;;;5031973;28;20276;-87
2024/01/17 02:06:14;;;;;;;14.60;6.80;;;;;;;;;;5026536;28;20347;-90
2024/01/17 02:08:40;;;;;;;19.53;7.83;;;;;;;;;;5014775;28;20284;-89
2024/01/17 02:11:07;;;;;;;21.03;8.17;;;;;;;;;;5026240;28;20344;-92
2024/01/17 02:13:36;;;;;;;13.93;7.60;;;;;;;;;;5010308;28;20295;-88
2024/01/17 02:16:02;;;;;;;12.57;7.70;;;;;;;;;;5027242;28;20287;-92
2024/01/17 02:18:28;;;;;;;16.53;7.83;;;;;;;;;;5014616;28;20291;-90
2024/01/17 02:20:57;;;;;;;16.50;7.23;;;;;;;;;;5024119;28;20287;-87
2024/01/17 02:23:29;;;;;;;23.67;8.23;;;;;;;;;;5007842;28;20308;-92
2024/01/17 02:25:56;;;;;;;15.10;7.20;;;;;;;;;;5029022;28;20767;-90
2024/01/17 02:28:22;;;;;;;15.37;7.50;;;;;;;;;;5008644;28;20534;-89
2024/01/17 02:30:48;;;;;;;16.93;8.00;;;;;;;;;;5010961;28;20276;-90
2024/01/17 02:33:14;;;;;;;21.70;8.10;;;;;;;;;;5015964;28;20272;-91
2024/01/17 02:35:40;;;;;;;21.40;8.23;;;;;;;;;;5009422;28;20108;-89
2024/01/17 02:38:06;;;;;;;16.50;8.37;;;;;;;;;;5008077;28;20291;-92
2024/01/17 02:40:32;;;;;;;27.27;9.17;;;;;;;;;;5010639;28;20336;-91
2024/01/17 02:42:58;;;;;;;17.27;8.37;;;;;;;;;;5011371;28;22112;-87
2024/01/17 02:45:24;;;;;;;16.03;8.00;;;;;;;;;;5011487;28;20307;-85
2024/01/17 02:47:50;;;;;;;16.87;7.73;;;;;;;;;;5015883;28;20370;-86
2024/01/17 02:50:16;;;;;;;22.07;8.33;;;;;;;;;;5017312;28;20029;-86
2024/01/17 02:52:45;;;;;;;18.60;8.53;;;;;;;;;;5015116;28;20026;-87
2024/01/17 02:55:12;;;;;;;22.07;8.53;;;;;;;;;;5016790;28;20306;-90
2024/01/17 02:57:38;;;;;;;16.77;7.57;;;;;;;;;;5017579;28;20345;-92
2024/01/17 03:00:05;;;;;;;17.10;7.80;;;;;;;;;;5013980;28;20347;-91
2024/01/17 03:02:31;;;;;;;15.67;8.00;;;;;;;;;;5016620;28;20283;-90
2024/01/17 03:04:58;;;;;;;17.70;8.47;;;;;;;;;;5012157;28;20304;-89
2024/01/17 03:07:23;;;;;;;16.47;7.60;;;;;;;;;;5014427;28;20379;-89
2024/01/17 03:09:49;;;;;;;17.00;7.47;;;;;;;;;;5016225;28;20310;-92
2024/01/17 03:12:15;;;;;;;13.77;7.70;;;;;;;;;;5012744;28;20145;-91
2024/01/17 03:14:41;;;;;;;16.13;8.70;;;;;;;;;;5017182;28;20033;-92
2024/01/17 03:17:08;;;;;;;15.70;8.50;;;;;;;;;;5015084;28;20025;-88
2024/01/17 03:19:34;;;;;;;23.13;9.77;;;;;;;;;;5013777;28;20283;-90
2024/01/17 03:22:01;;;;;;;15.87;7.73;;;;;;;;;;5030666;28;20283;-88
2024/01/17 03:24:27;;;;;;;18.57;7.97;;;;;;;;;;5031112;28;20284;-91
2024/01/17 03:26:53;;;;;;;20.97;8.27;;;;;;;;;;5012325;28;20292;-90
2024/01/17 03:29:19;;;;;;;18.40;7.90;;;;;;;;;;5016850;28;20268;-89
2024/01/17 03:31:47;;;;;;;14.57;7.57;;;;;;;;;;5030425;28;20286;-91
2024/01/17 03:34:13;;;;;;;16.57;7.53;;;;;;;;;;5028863;28;20053;-91
2024/01/17 03:36:39;;;;;;;14.07;7.83;;;;;;;;;;5013303;28;20879;-92
2024/01/17 03:39:05;;;;;;;18.60;8.10;;;;;;;;;;5013090;28;20284;-88
2024/01/17 03:41:31;;;;;;;22.87;8.50;;;;;;;;;;5031294;28;20276;-88
2024/01/17 03:44:00;;;;;;;14.60;8.17;;;;;;;;;;5016824;28;20342;-90
2024/01/17 03:46:26;;;;;;;18.10;8.50;;;;;;;;;;5012324;28;20276;-86
2024/01/17 03:48:52;;;;;;;15.80;9.13;;;;;;;;;;5013943;28;21211;-88
2024/01/17 03:51:18;;;;;;;16.00;8.47;;;;;;;;;;5016762;28;20022;-89
2024/01/17 03:53:46;;;;;;;17.93;8.60;;;;;;;;;;5013573;28;20276;-89
2024/01/17 03:56:12;;;;;;;19.33;8.70;;;;;;;;;;5027596;28;20433;-85
2024/01/17 03:58:39;;;;;;;20.83;9.10;;;;;;;;;;5012154;28;20284;-90
2024/01/17 04:01:08;;;;;;;19.33;8.57;;;;;;;;;;5014621;28;20292;-88
2024/01/17 04:03:34;;;;;;;20.13;8.27;;;;;;;;;;5027487;28;20296;-90
2024/01/17 04:06:00;;;;;;;16.57;8.87;;;;;;;;;;5012603;28;20285;-89
2024/01/17 04:08:26;;;;;;;16.87;7.83;;;;;;;;;;5013305;28;20040;-90
2024/01/17 04:10:52;;;;;;;14.90;7.53;;;;;;;;;;5031174;28;20932;-89
2024/01/17 04:13:18;;;;;;;16.20;8.70;;;;;;;;;;5031413;28;20033;-89
2024/01/17 04:15:44;;;;;;;21.77;8.30;;;;;;;;;;5016896;28;20468;-90
2024/01/17 04:18:10;;;;;;;15.60;8.07;;;;;;;;;;5013410;28;20029;-87
2024/01/17 04:20:36;;;;;;;14.93;7.73;;;;;;;;;;5013498;28;20288;-91
2024/01/17 04:23:04;;;;;;;19.67;8.23;;;;;;;;;;5006337;28;20033;-86
2024/01/17 04:25:30;;;;;;;16.53;7.60;;;;;;;;;;5014446;28;20196;-89
2024/01/17 04:27:56;;;;;;;16.77;9.17;;;;;;;;;;5013627;28;20382;-89
2024/01/17 04:30:22;;;;;;;17.83;8.23;;;;;;;;;;5034542;28;20640;-86
2024/01/17 04:32:48;;;;;;;16.50;8.37;;;;;;;;;;5008772;28;20269;-87
2024/01/17 04:35:18;;;;;;;23.30;8.23;;;;;;;;;;5029771;28;20284;-92
2024/01/17 04:37:44;;;;;;;16.67;7.63;;;;;;;;;;5016217;28;20272;-91
2024/01/17 04:40:12;;;;;;;18.87;8.80;;;;;;;;;;5014542;28;20764;-83
2024/01/17 04:42:38;;;;;;;22.07;9.10;;;;;;;;;;5016770;28;20292;-94
2024/01/17 04:45:04;;;;;;;19.57;8.90;;;;;;;;;;5022196;28;20287;-93
2024/01/17 04:47:30;;;;;;;18.33;8.13;;;;;;;;;;5023565;28;20799;-90
2024/01/17 04:49:56;;;;;;;13.63;7.77;;;;;;;;;;5019653;28;20284;-93
2024/01/17 04:52:26;;;;;;;15.63;8.03;;;;;;;;;;5010032;28;20272;-90
2024/01/17 04:54:52;;;;;;;21.27;8.73;;;;;;;;;;5021293;28;20022;-89
2024/01/17 04:57:18;;;;;;;14.80;7.40;;;;;;;;;;5021250;28;20279;-92
2024/01/17 04:59:44;;;;;;;16.57;7.97;;;;;;;;;;5021331;28;20056;-92
2024/01/17 05:02:10;;;;;;;17.83;8.43;;;;;;;;;;5021501;28;20264;-92
2024/01/17 05:04:36;;;;;;;15.73;8.27;;;;;;;;;;5021043;28;20033;-88
2024/01/17 05:07:02;;;;;;;17.57;8.40;;;;;;;;;;5012585;28;20365;-91
2024/01/17 05:09:28;;;;;;;19.00;9.43;;;;;;;;;;5018276;28;20041;-93
2024/01/17 05:11:56;;;;;;;17.33;8.60;;;;;;;;;;5015193;28;20611;-93
2024/01/17 05:14:22;;;;;;;18.63;8.60;;;;;;;;;;5021534;28;20338;-91
2024/01/17 05:16:50;;;;;;;15.97;9.13;;;;;;;;;;5025200;28;20295;-92
2024/01/17 05:19:17;;;;;;;21.33;8.77;;;;;;;;;;5005365;28;20041;-92
2024/01/17 05:21:43;;;;;;;15.40;8.63;;;;;;;;;;5029406;28;20267;-92
2024/01/17 05:24:09;;;;;;;18.57;8.33;;;;;;;;;;5026850;28;20280;-92
2024/01/17 05:26:35;;;;;;;16.20;7.70;;;;;;;;;;5020434;28;20799;-89
2024/01/17 05:29:01;;;;;;;15.93;8.53;;;;;;;;;;5038135;28;20264;-92
2024/01/17 05:31:27;;;;;;;23.20;8.67;;;;;;;;;;5020723;28;20075;-88
2024/01/17 05:33:53;;;;;;;15.40;7.57;;;;;;;;;;5020718;28;20269;-93
2024/01/17 05:36:19;;;;;;;14.83;8.03;;;;;;;;;;5019708;28;20914;-92
2024/01/17 05:38:45;;;;;;;18.73;8.57;;;;;;;;;;5010438;28;20273;-93
2024/01/17 05:41:11;;;;;;;18.33;8.47;;;;;;;;;;5013329;28;21416;-91
2024/01/17 05:43:37;;;;;;;17.10;8.67;;;;;;;;;;5020320;28;20033;-94
2024/01/17 05:46:05;;;;;;;17.80;8.50;;;;;;;;;;5021009;28;20268;-93
2024/01/17 05:48:31;;;;;;;14.60;8.07;;;;;;;;;;5020525;28;20288;-93
2024/01/17 05:51:00;;;;;;;20.00;8.90;;;;;;;;;;5038331;28;20299;-93
2024/01/17 05:53:26;;;;;;;16.53;8.30;;;;;;;;;;5013385;28;20276;-92
2024/01/17 05:55:52;;;;;;;18.03;8.40;;;;;;;;;;5012594;28;20296;-90
2024/01/17 05:58:19;;;;;;;17.30;8.00;;;;;;;;;;5024709;28;20037;-93
2024/01/17 06:00:45;;;;;;;14.40;7.37;;;;;;;;;;5019625;28;20271;-88
2024/01/17 06:03:14;;;;;;;16.70;7.37;;;;;;;;;;5023299;28;20280;-93
2024/01/17 06:05:40;;;;;;;13.77;7.10;;;;;;;;;;5011247;28;20103;-90
2024/01/17 06:08:06;;;;;;;17.77;7.90;;;;;;;;;;5024333;28;20288;-94
2024/01/17 06:10:32;;;;;;;21.60;7.90;;;;;;;;;;5020334;28;20362;-91
2024/01/17 06:13:01;;;;;;;15.77;7.40;;;;;;;;;;5022569;28;20736;-94
2024/01/17 06:15:27;;;;;;;15.07;7.63;;;;;;;;;;5020759;28;20338;-93
2024/01/17 06:17:55;;;;;;;21.77;8.20;;;;;;;;;;5022107;28;20555;-89
2024/01/17 06:20:21;;;;;;;21.60;7.83;;;;;;;;;;5011199;28;20029;-87
2024/01/17 06:22:47;;;;;;;16.87;7.23;;;;;;;;;;5029826;28;20616;-87
2024/01/17 06:25:16;;;;;;;20.20;8.07;;;;;;;;;;5010979;28;20033;-85
2024/01/17 06:27:42;;;;;;;17.00;7.93;;;;;;;;;;5011568;28;20052;-91
2024/01/17 06:30:11;;;;;;;13.37;7.60;;;;;;;;;;5015092;28;20276;-88
2024/01/17 06:32:37;;;;;;;16.83;8.10;;;;;;;;;;5031472;28;20272;-87
2024/01/17 06:35:03;;;;;;;20.50;7.90;;;;;;;;;;5029040;28;20414;-91
2024/01/17 06:37:29;;;;;;;17.43;8.73;;;;;;;;;;5013533;28;20280;-91
2024/01/17 06:39:55;;;;;;;22.33;9.20;;;;;;;;;;5013999;28;20303;-89
2024/01/17 06:42:21;;;;;;;17.70;8.20;;;;;;;;;;5009981;28;20121;-91
2024/01/17 06:44:49;;;;;;;20.47;9.57;;;;;;;;;;5009864;28;20025;-92
2024/01/17 06:47:16;;;;;;;13.87;7.80;;;;;;;;;;5010361;28;20284;-91
2024/01/17 06:49:42;;;;;;;17.80;8.40;;;;;;;;;;5011587;28;20344;-92
2024/01/17 06:52:08;;;;;;;17.63;7.33;;;;;;;;;;5010854;28;20338;-90
2024/01/17 06:54:34;;;;;;;15.93;7.93;;;;;;;;;;5026386;28;20357;-92
2024/01/17 06:57:00;;;;;;;14.83;7.83;;;;;;;;;;5026184;28;20624;-92
2024/01/17 06:59:26;;;;;;;18.80;8.13;;;;;;;;;;5009795;28;20273;-90
2024/01/17 07:01:54;;;;;;;16.77;8.30;;;;;;;;;;5008673;28;20053;-92
2024/01/17 07:04:20;;;;;;;20.17;7.63;;;;;;;;;;5011044;28;20276;-89
2024/01/17 07:06:46;;;;;;;20.37;8.53;;;;;;;;;;5008780;28;20815;-93
2024/01/17 07:09:13;;;;;;;14.97;7.43;;;;;;;;;;5009008;28;20121;-91
2024/01/17 07:11:39;;;;;;;18.40;7.87;;;;;;;;;;5028375;28;20080;-89
2024/01/17 07:14:06;;;;;;;23.30;7.97;;;;;;;;;;5011132;28;20299;-87
2024/01/17 07:16:32;;;;;;;19.50;7.27;;;;;;;;;;5009489;28;20272;-87
2024/01/17 07:18:58;;;;;;;12.83;7.80;;;;;;;;;;5008966;28;20299;-92
2024/01/17 07:21:24;;;;;;;17.90;8.43;;;;;;;;;;5025547;28;20025;-87
2024/01/17 07:23:51;;;;;;;14.87;8.53;;;;;;;;;;5011946;28;20347;-89
2024/01/17 07:26:17;;;;;;;15.10;6.77;;;;;;;;;;5008372;28;20296;-90
2024/01/17 07:28:43;;;;;;;17.03;7.90;;;;;;;;;;5026092;28;20287;-91
2024/01/17 07:31:12;;;;;;;13.53;7.03;;;;;;;;;;5007533;28;20328;-89
2024/01/17 07:33:38;;;;;;;14.40;7.30;;;;;;;;;;5012482;28;20277;-92
2024/01/17 07:36:04;;;;;;;20.03;8.10;;;;;;;;;;5011488;28;20365;-92
2024/01/17 07:38:30;;;;;;;18.37;7.80;;;;;;;;;;5030296;28;20037;-90
2024/01/17 07:40:58;;;;;;;14.80;7.27;;;;;;;;;;5013092;28;20368;-90
2024/01/17 07:43:24;;;;;;;19.87;7.13;;;;;;;;;;5017264;28;20029;-92
2024/01/17 07:45:50;;;;;;;18.50;7.10;;;;;;;;;;5028765;28;20283;-90
2024/01/17 07:48:17;;;;;;;18.03;7.73;;;;;;;;;;5031032;28;20296;-87
2024/01/17 07:50:43;;;;;;;20.37;7.53;;;;;;;;;;5011888;28;20443;-85
2024/01/17 07:53:12;;;;;;;14.60;7.17;;;;;;;;;;5011279;28;20371;-90
2024/01/17 07:55:39;;;;;;;15.70;6.90;;;;;;;;;;5010788;28;20026;-87
2024/01/17 07:58:05;;;;;;;13.30;7.07;;;;;;;;;;5014101;28;20970;-92
2024/01/17 08:00:31;;;;;;;16.47;7.17;;;;;;;;;;5029685;28;20311;-87
2024/01/17 08:02:58;;;;;;;20.60;8.13;;;;;;;;;;5028380;28;20287;-91
2024/01/17 08:05:26;;;;;;;13.93;6.73;;;;;;;;;;5014947;28;20938;-91
2024/01/17 08:07:52;;;;;;;15.80;7.23;;;;;;;;;;5020785;28;20318;-87
2024/01/17 08:10:18;;;;;;;14.93;6.57;;;;;;;;;;5036185;28;20391;-86
2024/01/17 08:12:46;;;;;;;16.63;7.47;;;;;;;;;;5040393;28;20284;-83
2024/01/17 08:15:15;;;;;;;17.00;6.77;;;;;;;;;;5024198;28;20265;-84
2024/01/17 08:17:41;;;;;;;16.03;7.03;;;;;;;;;;5025546;28;20276;-84
2024/01/17 08:20:07;;;;;;;13.33;7.43;;;;;;;;;;5043453;28;20288;-87
2024/01/17 08:22:34;;;;;;;19.13;7.50;;;;;;;;;;5031110;28;20343;-89
2024/01/17 08:25:00;;;;;;;15.40;7.23;;;;;;;;;;5023810;28;20268;-88
2024/01/17 08:27:26;;;;;;;15.60;6.63;;;;;;;;;;5028005;28;20311;-86
2024/01/17 08:29:53;;;;;;;21.23;7.57;;;;;;;;;;5044358;28;20279;-87
2024/01/17 08:32:19;;;;;;;18.43;6.67;;;;;;;;;;5040523;28;20275;-86
2024/01/17 08:34:45;;;;;;;17.97;7.37;;;;;;;;;;5041038;28;20344;-87
2024/01/17 08:37:12;;;;;;;19.63;7.13;;;;;;;;;;5025119;28;20278;-89
2024/01/17 08:39:38;;;;;;;18.57;6.93;;;;;;;;;;5030399;28;20311;-90
2024/01/17 08:42:04;;;;;;;19.87;8.60;;;;;;;;;;5037852;28;20310;-86
2024/01/17 08:44:32;;;;;;;13.87;6.43;;;;;;;;;;5022185;28;20272;-81
2024/01/17 08:47:00;;;;;;;17.03;7.37;;;;;;;;;;5023002;28;20308;-90
2024/01/17 08:49:28;;;;;;;17.33;6.90;;;;;;;;;;5025327;28;20282;-87
2024/01/17 08:51:54;;;;;;;22.53;8.10;;;;;;;;;;5023612;28;20280;-83
2024/01/17 08:54:21;;;;;;;13.97;7.17;;;;;;;;;;5024114;28;21900;-90
2024/01/17 08:56:48;;;;;;;14.77;7.20;;;;;;;;;;5035812;28;20295;-89
2024/01/17 08:59:14;;;;;;;16.00;7.57;;;;;;;;;;5022698;28;20284;-80
2024/01/17 09:01:41;;;;;;;18.93;7.50;;;;;;;;;;5028606;28;20384;-88
2024/01/17 09:04:07;;;;;;;19.17;7.70;;;;;;;;;;5019687;28;20282;-90
2024/01/17 09:06:35;;;;;;;15.63;7.47;;;;;;;;;;5020087;28;20280;-88
2024/01/17 09:09:12;;;;;;;;;;;;;;;;;;;;;
2024/01/17 09:11:56;;;;;;;16.97;8.03;;;;;;;;;;5039291;28;20385;-90
2024/01/17 09:14:24;;;;;;;15.87;7.60;;;;;;;;;;5039814;28;20299;-87
2024/01/17 09:16:53;;;;;;;15.70;7.60;;;;;;;;;;5022620;28;20284;-90
2024/01/17 09:19:22;;;;;;;15.93;8.77;;;;;;;;;;5020089;28;20621;-86
2024/01/17 09:21:52;;;;;;;13.53;7.27;;;;;;;;;;5036493;28;20291;-93
2024/01/17 09:24:21;;;;;;;14.53;7.07;;;;;;;;;;5037501;28;20359;-87
2024/01/17 09:26:54;;;;;;;16.30;8.13;;;;;;;;;;5018677;28;20276;-87
2024/01/17 09:29:22;;;;;;;17.07;7.17;;;;;;;;;;5020833;28;20276;-88
2024/01/17 09:31:50;;;;;;;14.53;7.13;;;;;;;;;;5019902;28;20272;-88
2024/01/17 09:34:26;;;;;;;16.13;6.87;;;;;;;;;;5021423;28;20290;-90
2024/01/17 09:37:02;;;;;;;23.40;11.17;;;;;;;;;;5038303;28;20276;-92
2024/01/17 09:39:29;;;;;;;15.77;7.63;;;;;;;;;;5017622;28;20284;-86
2024/01/17 09:44:44;;;;;;;16.77;8.30;;;;;;;;;;5028063;28;20291;-84
2024/01/17 09:47:15;;;;;;;18.60;8.90;;;;;;;;;;5024303;28;22350;-89
2024/01/17 09:50:25;;;;;;;19.27;7.80;;;;;;;;;;5021338;28;20284;-90
2024/01/17 09:52:54;;;;;;;15.13;7.43;;;;;;;;;;5034346;28;20279;-87
2024/01/17 09:55:25;;;;;;;24.93;8.27;;;;;;;;;;5021226;28;20276;-89
2024/01/17 09:57:57;;;;;;;14.97;7.37;;;;;;;;;;5036741;28;20280;-86
2024/01/17 10:00:27;;;;;;;18.80;7.53;;;;;;;;;;5037942;28;20367;-79
2024/01/17 10:02:53;;;;;;;14.80;7.50;;;;;;;;;;5038146;28;20040;-89
2024/01/17 10:05:26;;;;;;;17.13;7.60;;;;;;;;;;5023737;28;20268;-88
2024/01/17 10:08:15;;;;;;;16.08;7.95;;;;;;;;;;5019007;28;20299;-88
2024/01/17 10:10:46;;;;;;;17.47;7.40;;;;;;;;;;5039712;28;20063;-82
2024/01/17 10:13:12;;;;;;;16.13;8.47;;;;;;;;;;5029309;28;20268;-87
2024/01/17 10:15:52;;;;;;;18.20;8.00;;;;;;;;;;5025563;28;20408;-86
2024/01/17 10:18:28;;;;;;;18.57;7.50;;;;;;;;;;5023091;28;20264;-85
2024/01/17 10:20:56;;;;;;;25.00;9.00;;;;;;;;;;5024757;28;20277;-87
2024/01/17 10:23:33;;;;;;;17.73;7.70;;;;;;;;;;5021582;28;20269;-86
2024/01/17 10:26:03;;;;;;;26.27;9.07;;;;;;;;;;5039878;28;20914;-91
2024/01/17 10:28:33;;;;;;;15.57;7.53;;;;;;;;;;5021913;28;20326;-89
2024/01/17 10:31:05;;;;;;;14.87;7.73;;;;;;;;;;5035516;28;20281;-85
2024/01/17 10:33:39;;;;;;;18.58;9.20;;;;;;;;;;5035520;28;20376;-81
2024/01/17 10:36:14;;;;;;;20.10;8.77;;;;;;;;;;5020319;28;20025;-86
2024/01/17 10:38:46;;;;;;;18.17;8.80;;;;;;;;;;5017895;28;20300;-86
2024/01/17 10:41:15;;;;;;;19.10;9.02;;;;;;;;;;5034943;28;20280;-89
2024/01/17 10:43:55;;;;;;;14.83;8.27;;;;;;;;;;5057929;28;20037;-88
2024/01/17 10:46:24;;;;;;;19.47;7.93;;;;;;;;;;5030892;28;20314;-88
2024/01/17 10:48:53;;;;;;;16.43;8.30;;;;;;;;;;5035852;28;20296;-91
2024/01/17 10:51:23;;;;;;;24.77;10.23;;;;;;;;;;5024523;28;20275;-92
2024/01/17 10:53:53;;;;;;;18.93;9.67;;;;;;;;;;5025553;28;20278;-92
2024/01/17 10:56:20;;;;;;;18.23;9.03;;;;;;;;;;5029752;28;20341;-94
2024/01/17 10:58:50;;;;;;;21.17;10.27;;;;;;;;;;5029483;28;20276;-91
2024/01/17 11:01:18;;;;;;;18.53;8.50;;;;;;;;;;5027239;28;20731;-90
2024/01/17 11:03:52;;;;;;;29.13;10.97;;;;;;;;;;5036888;28;20280;-91
2024/01/17 11:06:21;;;;;;;16.83;9.10;;;;;;;;;;5036609;28;20275;-91
2024/01/17 11:08:50;;;;;;;23.43;10.63;;;;;;;;;;5032881;28;20351;-85
2024/01/17 11:11:19;;;;;;;17.63;9.80;;;;;;;;;;5036766;28;20271;-91
2024/01/17 11:13:47;;;;;;;16.37;8.40;;;;;;;;;;5037645;28;20570;-91
2024/01/17 11:16:15;;;;;;;19.57;9.87;;;;;;;;;;5036377;28;20605;-91
2024/01/17 11:18:42;;;;;;;19.47;10.67;;;;;;;;;;5039360;28;20291;-89
2024/01/17 11:21:11;;;;;;;17.57;10.17;;;;;;;;;;5039233;28;20268;-89
2024/01/17 11:23:43;;;;;;;19.73;10.13;;;;;;;;;;5037949;28;20266;-90
2024/01/17 11:26:19;;;;;;;18.50;10.10;;;;;;;;;;5057468;28;20302;-93
2024/01/17 11:31:43;;;;;;;24.50;12.13;;;;;;;;;;5044326;28;20252;-89
2024/01/17 11:34:09;;;;;;;24.13;11.87;;;;;;;;;;5046759;28;20275;-89
2024/01/17 11:36:44;;;;;;;26.63;13.73;;;;;;;;;;5060371;28;20335;-90
2024/01/17 11:39:11;;;;;;;27.30;13.00;;;;;;;;;;5040500;28;20423;-90
2024/01/17 11:41:39;;;;;;;21.17;11.37;;;;;;;;;;5043110;28;20325;-88
2024/01/17 11:44:06;;;;;;;22.57;12.43;;;;;;;;;;5035695;28;20265;-92
2024/01/17 11:46:35;;;;;;;23.60;12.73;;;;;;;;;;5036148;28;20284;-91
2024/01/17 11:49:01;;;;;;;25.13;13.23;;;;;;;;;;5036118;28;20807;-86
2024/01/17 11:51:27;;;;;;;26.73;13.73;;;;;;;;;;5047163;28;20275;-91
2024/01/17 11:53:53;;;;;;;31.73;14.37;;;;;;;;;;5038244;28;20286;-89
2024/01/17 11:56:20;;;;;;;31.40;14.20;;;;;;;;;;5027642;28;20320;-89
2024/01/17 11:59:12;;;;;;;29.93;13.83;;;;;;;;;;5035774;28;21029;-93
2024/01/17 12:01:42;;;;;;;25.23;14.05;;;;;;;;;;5026651;28;20923;-91
2024/01/17 12:04:20;;;;;;;34.77;15.80;;;;;;;;;;5028296;28;20014;-88
2024/01/17 12:06:55;;;;;;;32.10;15.70;;;;;;;;;;5029875;28;20252;-92
2024/01/17 12:09:21;;;;;;;30.37;15.73;;;;;;;;;;5030441;28;20280;-93
2024/01/17 12:11:48;;;;;;;28.60;15.00;;;;;;;;;;5047935;28;20263;-94
2024/01/17 12:14:17;;;;;;;26.83;15.23;;;;;;;;;;5042216;28;20063;-94
2024/01/17 12:17:04;;;;;;;32.97;14.67;;;;;;;;;;5031405;28;20364;-89
2024/01/17 12:19:33;;;;;;;33.43;17.03;;;;;;;;;;5023109;28;20307;-85
2024/01/17 12:21:59;;;;;;;35.13;16.47;;;;;;;;;;5023059;28;20276;-87
2024/01/17 12:24:26;;;;;;;34.87;17.57;;;;;;;;;;5022801;28;20276;-86
2024/01/17 12:26:55;;;;;;;79.07;36.90;;;;;;;;;;5038066;28;20276;-91
2024/01/17 12:29:21;;;;;;;51.93;28.07;;;;;;;;;;5041343;28;20359;-89
2024/01/17 12:31:47;;;;;;;48.13;24.33;;;;;;;;;;5038016;28;20271;-81
2024/01/17 12:34:16;;;;;;;49.33;24.20;;;;;;;;;;5036196;28;20280;-91
2024/01/17 12:36:42;;;;;;;44.23;23.07;;;;;;;;;;5022156;28;20345;-89
2024/01/17 12:39:12;;;;;;;43.57;23.17;;;;;;;;;;5020589;28;20323;-78
2024/01/17 12:41:38;;;;;;;34.77;18.03;;;;;;;;;;5023081;28;20260;-80
2024/01/17 12:44:05;;;;;;;34.90;17.90;;;;;;;;;;5042282;28;20272;-84
2024/01/17 12:46:32;;;;;;;35.10;17.23;;;;;;;;;;5024495;28;20311;-87
2024/01/17 12:49:08;;;;;;;33.97;17.00;;;;;;;;;;5024708;28;20295;-79
2024/01/17 12:51:36;;;;;;;33.07;15.63;;;;;;;;;;5022539;28;20283;-82
2024/01/17 12:54:08;;;;;;;37.13;17.10;;;;;;;;;;5024133;28;20283;-82
2024/01/17 12:56:34;;;;;;;31.00;15.37;;;;;;;;;;5021365;28;20273;-88
2024/01/17 13:01:49;;;;;;;29.50;15.67;;;;;;;;;;5040043;28;20881;-85
2024/01/17 13:04:25;;;;;;;31.10;15.57;;;;;;;;;;5023853;28;20304;-83
2024/01/17 13:06:57;;;;;;;30.47;16.23;;;;;;;;;;5038145;28;20296;-88
2024/01/17 13:09:24;;;;;;;30.08;14.52;;;;;;;;;;5022386;28;20373;-86
2024/01/17 13:12:15;;;;;;;29.47;14.83;;;;;;;;;;5022113;28;20037;-87
2024/01/17 13:14:42;;;;;;;33.03;15.00;;;;;;;;;;5035172;28;20283;-86
2024/01/17 13:17:16;;;;;;;33.00;15.57;;;;;;;;;;5019745;28;20279;-87
2024/01/17 13:19:44;;;;;;;27.83;13.93;;;;;;;;;;5022566;28;20315;-84
2024/01/17 13:22:12;;;;;;;29.77;15.47;;;;;;;;;;5036210;28;20300;-90
2024/01/17 13:24:52;;;;;;;32.07;16.13;;;;;;;;;;5038714;28;20287;-87
2024/01/17 13:27:21;;;;;;;29.37;14.83;;;;;;;;;;5037655;28;20398;-84
2024/01/17 13:32:59;;;;;;;23.80;13.27;;;;;;;;;;5029850;28;20268;-85
2024/01/17 13:39:09;;;;;;;;;;;;;;;;;;;;;
2024/01/17 13:48:06;;;;;;;23.90;11.53;;;;;;;;;;4969551;28;20474;-87
2024/01/17 13:50:32;;;;;;;25.23;11.13;;;;;;;;;;5029703;28;20291;-88
2024/01/17 13:53:08;;;;;;;26.23;11.23;;;;;;;;;;5021755;28;20682;-89
2024/01/17 13:55:50;;;;;;;26.83;11.40;;;;;;;;;;5025261;28;20267;-88
2024/01/17 13:58:27;;;;;;;;;;;;;;;;;;;;;
2024/01/17 14:01:02;;;;;;;21.43;10.00;;;;;;;;;;5040790;28;20050;-84
2024/01/17 14:03:39;;;;;;;32.30;12.47;;;;;;;;;;5030270;28;20279;-89
2024/01/17 14:06:08;;;;;;;31.07;12.83;;;;;;;;;;5019019;28;20280;-89
2024/01/17 14:08:46;;;;;;;30.67;14.33;;;;;;;;;;5020769;28;20347;-92
2024/01/17 14:11:17;;;;;;;25.93;12.00;;;;;;;;;;5008379;28;20281;-85
2024/01/17 14:13:46;;;;;;;32.20;15.37;;;;;;;;;;5041200;28;21685;-80
2024/01/17 14:16:25;;;;;;;;;;;;;;;;;;;;;
2024/01/17 14:18:54;;;;;;;19.93;9.20;;;;;;;;;;5041414;28;20310;-89
2024/01/17 14:21:43;;;;;;;28.97;13.53;;;;;;;;;;5024782;28;20276;-85
2024/01/17 14:24:13;;;;;;;25.27;11.70;;;;;;;;;;5023390;28;20327;-83
2024/01/17 14:26:39;;;;;;;25.40;11.40;;;;;;;;;;5038097;28;20291;-86
2024/01/17 14:29:13;;;;;;;27.47;11.40;;;;;;;;;;5021872;28;20300;-88
2024/01/17 14:31:41;;;;;;;14.17;7.07;;;;;;;;;;5022719;28;20292;-87
2024/01/17 14:37:17;;;;;;;17.97;7.60;;;;;;;;;;5037668;28;21698;-81
2024/01/17 14:39:47;;;;;;;24.87;9.93;;;;;;;;;;5021985;28;20280;-85
2024/01/17 14:42:22;;;;;;;23.33;9.27;;;;;;;;;;5020068;28;20280;-86
2024/01/17 14:44:51;;;;;;;29.33;11.53;;;;;;;;;;5024591;28;20444;-82
2024/01/17 14:47:17;;;;;;;15.17;6.73;;;;;;;;;;5020461;28;20319;-88
2024/01/17 14:49:43;;;;;;;20.37;8.57;;;;;;;;;;5037000;28;20272;-87
2024/01/17 14:52:10;;;;;;;28.07;12.70;;;;;;;;;;5018181;28;20609;-86
2024/01/17 14:54:36;;;;;;;29.33;11.57;;;;;;;;;;5019343;28;20358;-87
2024/01/17 14:57:07;;;;;;;38.53;12.80;;;;;;;;;;5036865;28;20295;-89
2024/01/17 14:59:37;;;;;;;21.40;9.17;;;;;;;;;;5035301;28;20287;-84
2024/01/17 15:02:06;;;;;;;29.57;12.30;;;;;;;;;;5025719;28;20307;-87
2024/01/17 15:04:34;;;;;;;21.37;9.63;;;;;;;;;;5016752;28;20312;-89
2024/01/17 15:07:10;;;;;;;32.93;13.83;;;;;;;;;;5031752;28;20318;-91